Latest Weather Observations for Bankstown
Issued at 8:11 pm EST Wednesday 6 May 2026 (issued every 10 minutes, with the page automatically refreshed every 10 minutes)
| Station Details | ID: 066137 | Name: BANKSTOWN AIRPORT AWS | Lat: -33.92 | Lon: 150.98 | Height: 7.2 m |
| Date/Time EST |
Temp °C |
App Temp °C |
Dew Point °C |
Rel Hum % |
Delta-T °C |
Wind | Press QNH hPa |
Press MSL hPa |
Rain since 9am mm |
||||
|---|---|---|---|---|---|---|---|---|---|---|---|---|---|
| Dir | Spd km/h |
Gust km/h |
Spd kts |
Gust kts |
|||||||||
| 06/08:00pm | 15.4 | 16.6 | 13.8 | 90 | 0.9 | CALM | 0 | 6 | 0 | 3 | 1016.3 | 1016.3 | 0.0 |
| 06/07:30pm | 15.7 | 16.4 | 13.4 | 86 | 1.3 | SE | 2 | 7 | 1 | 4 | 1016.3 | 1016.3 | 0.0 |
| 06/07:00pm | 16.6 | 17.2 | 13.1 | 80 | 2.0 | NE | 2 | 7 | 1 | 4 | 1016.2 | 1016.2 | 0.0 |
| 06/06:30pm | 18.5 | 18.1 | 14.0 | 75 | 2.6 | ENE | 9 | 11 | 5 | 6 | 1016.2 | 1016.2 | 0.0 |
| 06/06:00pm | 18.6 | 18.1 | 13.7 | 73 | 2.8 | NE | 9 | 13 | 5 | 7 | 1016.1 | 1016.1 | 0.0 |
| 06/05:30pm | 19.5 | 18.9 | 13.4 | 68 | 3.5 | ENE | 9 | 11 | 5 | 6 | 1016.0 | 1016.0 | 0.0 |
| 06/05:00pm | 20.1 | 18.4 | 13.6 | 66 | 3.7 | E | 15 | 19 | 8 | 10 | 1015.9 | 1015.9 | 0.0 |
| 06/04:30pm | 20.9 | 18.8 | 13.6 | 63 | 4.2 | ESE | 17 | 22 | 9 | 12 | 1016.0 | 1016.0 | 0.0 |
| 06/04:00pm | 21.6 | 20.1 | 11.9 | 54 | 5.4 | E | 11 | 15 | 6 | 8 | 1016.2 | 1016.2 | 0.0 |
| 06/03:30pm | 21.7 | 21.1 | 12.3 | 55 | 5.3 | SE | 7 | 11 | 4 | 6 | 1016.4 | 1016.4 | 0.0 |
| 06/03:00pm | 22.3 | 22.1 | 11.7 | 51 | 5.9 | NE | 4 | 11 | 2 | 6 | 1016.6 | 1016.6 | 0.0 |
| 06/02:30pm | 22.6 | 21.6 | 12.3 | 52 | 5.8 | N | 9 | 13 | 5 | 7 | 1016.9 | 1016.9 | 0.0 |
| 06/02:00pm | 23.0 | 21.7 | 11.4 | 48 | 6.5 | WNW | 9 | 13 | 5 | 7 | 1017.2 | 1017.2 | 0.0 |
| 06/01:30pm | 22.7 | 21.8 | 11.4 | 49 | 6.3 | NNW | 7 | 11 | 4 | 6 | 1017.6 | 1017.6 | 0.0 |
| 06/01:00pm | 21.5 | 19.9 | 10.3 | 49 | 6.1 | NNW | 9 | 11 | 5 | 6 | 1018.1 | 1018.1 | 0.0 |
| 06/12:30pm | 22.4 | 21.8 | 11.8 | 51 | 6.0 | NE | 6 | 7 | 3 | 4 | 1018.6 | 1018.6 | 0.0 |
| 06/12:00pm | 22.6 | 21.9 | 12.0 | 51 | 6.0 | W | 7 | 11 | 4 | 6 | 1019.2 | 1019.2 | 0.0 |
| 06/11:30am | 21.0 | 19.8 | 10.2 | 50 | 5.8 | NW | 7 | 11 | 4 | 6 | 1019.8 | 1019.8 | 0.0 |
| 06/11:00am | 20.4 | 19.1 | 9.9 | 51 | 5.6 | NW | 7 | 11 | 4 | 6 | 1020.4 | 1020.4 | 0.0 |
| 06/10:30am | 19.7 | 18.2 | 10.4 | 55 | 5.0 | WNW | 9 | 15 | 5 | 8 | 1020.7 | 1020.7 | 0.0 |
| 06/10:00am | 18.2 | 16.7 | 9.0 | 55 | 4.8 | WNW | 7 | 11 | 4 | 6 | 1021.0 | 1021.0 | 0.0 |
| 06/09:30am | 16.5 | 14.1 | 8.7 | 60 | 4.0 | W | 11 | 15 | 6 | 8 | 1021.1 | 1021.1 | 0.0 |
| 06/09:00am | 15.4 | 13.6 | 9.3 | 67 | 3.1 | WNW | 9 | 13 | 5 | 7 | 1021.1 | 1021.1 | 0.0 |
| 06/08:30am | 13.2 | 11.5 | 8.3 | 72 | 2.4 | NW | 7 | 13 | 4 | 7 | 1021.3 | 1021.3 | 0.0 |
| 06/08:00am | 13.1 | 11.2 | 9.0 | 76 | 2.1 | WNW | 9 | 13 | 5 | 7 | 1021.2 | 1021.2 | 0.0 |
| 06/07:30am | 12.2 | 11.9 | 8.5 | 78 | 1.8 | CALM | 0 | 0 | 0 | 0 | 1021.2 | 1021.2 | 0.0 |
| 06/07:00am | 10.9 | 9.3 | 8.1 | 83 | 1.4 | NW | 6 | 9 | 3 | 5 | 1021.1 | 1021.1 | 0.0 |
| 06/06:30am | 10.8 | 9.0 | 8.0 | 83 | 1.4 | NW | 7 | 11 | 4 | 6 | 1021.0 | 1021.0 | 0.0 |
| 06/06:00am | 10.7 | 8.5 | 7.9 | 83 | 1.3 | NNW | 9 | 9 | 5 | 5 | 1020.8 | 1020.8 | 0.0 |
| 06/05:30am | 10.9 | 9.1 | 8.1 | 83 | 1.4 | NW | 7 | 9 | 4 | 5 | 1020.7 | 1020.7 | 0.0 |
| 06/05:00am | 11.2 | 9.4 | 8.1 | 81 | 1.5 | NW | 7 | 9 | 4 | 5 | 1020.7 | 1020.7 | 0.0 |
| 06/04:30am | 11.5 | 9.3 | 8.0 | 79 | 1.7 | NNW | 9 | 9 | 5 | 5 | 1020.7 | 1020.7 | 0.0 |
| 06/04:00am | 11.9 | 10.1 | 8.0 | 77 | 1.9 | NW | 7 | 9 | 4 | 5 | 1020.6 | 1020.6 | 0.0 |
| 06/03:30am | 12.3 | 10.0 | 7.6 | 73 | 2.3 | WNW | 9 | 13 | 5 | 7 | 1020.5 | 1020.5 | 0.0 |
| 06/03:00am | 12.4 | 10.1 | 7.5 | 72 | 2.4 | W | 9 | 13 | 5 | 7 | 1020.7 | 1020.7 | 0.0 |
| 06/02:30am | 12.7 | 10.1 | 7.8 | 72 | 2.4 | W | 11 | 17 | 6 | 9 | 1020.8 | 1020.8 | 0.0 |
| 06/02:00am | 12.7 | 10.1 | 7.8 | 72 | 2.4 | W | 11 | 15 | 6 | 8 | 1020.9 | 1020.9 | 0.0 |
| 06/01:30am | 13.1 | 10.9 | 7.8 | 70 | 2.6 | W | 9 | 11 | 5 | 6 | 1021.2 | 1021.2 | 0.0 |
| 06/01:00am | 13.1 | 11.6 | 8.4 | 73 | 2.3 | WNW | 6 | 7 | 3 | 4 | 1021.4 | 1021.4 | 0.0 |
| 06/12:30am | 11.9 | 10.8 | 8.4 | 79 | 1.7 | WNW | 4 | 7 | 2 | 4 | 1021.4 | 1021.4 | 0.0 |
| 06/12:00am | 12.2 | 11.1 | 8.5 | 78 | 1.8 | W | 4 | 7 | 2 | 4 | 1021.4 | 1021.4 | 0.0 |
| Date/Time EST |
Temp °C |
App Temp °C |
Dew Point °C |
Rel Hum % |
Delta-T °C |
Wind | Press QNH hPa |
Press MSL hPa |
Rain since 9am mm |
||||
|---|---|---|---|---|---|---|---|---|---|---|---|---|---|
| Dir | Spd km/h |
Gust km/h |
Spd kts |
Gust kts |
|||||||||
| 05/11:30pm | 12.6 | 11.5 | 8.5 | 76 | 2.0 | W | 4 | 7 | 2 | 4 | 1021.5 | 1021.5 | 0.0 |
| 05/11:00pm | 12.5 | 11.8 | 8.6 | 77 | 1.9 | SE | 2 | 7 | 1 | 4 | 1021.4 | 1021.4 | 0.0 |
| 05/10:30pm | 12.5 | 12.4 | 9.5 | 82 | 1.5 | CALM | 0 | 0 | 0 | 0 | 1021.5 | 1021.5 | 0.0 |
| 05/10:00pm | 12.4 | 12.2 | 9.2 | 81 | 1.6 | CALM | 0 | 0 | 0 | 0 | 1021.6 | 1021.6 | 0.0 |
| 05/09:30pm | 13.1 | 13.2 | 10.3 | 83 | 1.4 | CALM | 0 | 0 | 0 | 0 | 1021.6 | 1021.6 | 0.0 |
| 05/09:00pm | 13.5 | 13.7 | 10.5 | 82 | 1.6 | CALM | 0 | 0 | 0 | 0 | 1021.4 | 1021.4 | 0.0 |
| 05/08:30pm | 13.0 | 12.9 | 9.6 | 80 | 1.7 | CALM | 0 | 0 | 0 | 0 | 1021.1 | 1021.1 | 0.0 |
| 05/08:00pm | 13.9 | 14.0 | 10.3 | 79 | 1.9 | CALM | 0 | 0 | 0 | 0 | 1020.8 | 1020.8 | 0.0 |
| 05/07:30pm | 14.4 | 14.5 | 10.2 | 76 | 2.2 | CALM | 0 | 0 | 0 | 0 | 1020.4 | 1020.4 | 0.0 |
| 05/07:00pm | 15.0 | 15.1 | 10.0 | 72 | 2.6 | CALM | 0 | 2 | 0 | 1 | 1020.0 | 1020.0 | 0.0 |
| 05/06:30pm | 16.6 | 16.1 | 9.3 | 62 | 3.8 | SE | 2 | 7 | 1 | 4 | 1019.6 | 1019.6 | 0.0 |
| 05/06:00pm | 17.8 | 15.6 | 9.4 | 58 | 4.4 | ESE | 11 | 11 | 6 | 6 | 1019.1 | 1019.1 | 0.0 |
| 05/05:30pm | 18.8 | 15.9 | 9.6 | 55 | 4.9 | ESE | 15 | 19 | 8 | 10 | 1018.6 | 1018.6 | 0.0 |
| 05/05:00pm | 19.8 | 17.7 | 9.7 | 52 | 5.4 | SE | 11 | 13 | 6 | 7 | 1018.0 | 1018.0 | 0.0 |
| 05/04:30pm | 22.0 | 19.9 | 6.7 | 37 | 7.8 | WSW | 7 | 13 | 4 | 7 | 1017.6 | 1017.6 | 0.0 |
| 05/04:00pm | 22.4 | 19.4 | 6.2 | 35 | 8.2 | WSW | 11 | 19 | 6 | 10 | 1017.4 | 1017.4 | 0.0 |
| 05/03:30pm | 22.8 | 19.8 | 6.1 | 34 | 8.5 | SW | 11 | 22 | 6 | 12 | 1017.4 | 1017.4 | 0.0 |
| 05/03:00pm | 22.8 | 19.5 | 6.6 | 35 | 8.3 | SW | 13 | 19 | 7 | 10 | 1017.2 | 1017.2 | 0.0 |
| 05/02:30pm | 22.8 | 20.0 | 7.0 | 36 | 8.2 | WSW | 11 | 20 | 6 | 11 | 1017.0 | 1017.0 | 0.0 |
| 05/02:00pm | 22.3 | 19.1 | 6.9 | 37 | 7.9 | SSW | 13 | 17 | 7 | 9 | 1016.8 | 1016.8 | 0.0 |
| 05/01:30pm | 22.3 | 20.2 | 8.1 | 40 | 7.5 | W | 9 | 15 | 5 | 8 | 1017.0 | 1017.0 | 0.0 |
| 05/01:00pm | 22.6 | 19.8 | 8.7 | 41 | 7.4 | WNW | 13 | 22 | 7 | 12 | 1017.3 | 1017.3 | 0.0 |
| 05/12:30pm | 21.5 | 18.1 | 7.7 | 41 | 7.2 | W | 15 | 22 | 8 | 12 | 1017.5 | 1017.5 | 0.0 |
| 05/12:00pm | 21.1 | 17.0 | 8.0 | 43 | 6.8 | W | 19 | 32 | 10 | 17 | 1017.8 | 1017.8 | 0.0 |
| 05/11:30am | 20.9 | 17.4 | 8.9 | 46 | 6.3 | WNW | 17 | 32 | 9 | 17 | 1018.3 | 1018.3 | 0.0 |
| 05/11:00am | 19.9 | 16.6 | 7.9 | 46 | 6.2 | W | 15 | 30 | 8 | 16 | 1018.8 | 1018.8 | 0.0 |
| 05/10:30am | 19.7 | 15.9 | 9.0 | 50 | 5.6 | W | 19 | 28 | 10 | 15 | 1018.9 | 1018.9 | 0.0 |
| 05/10:00am | 18.9 | 16.2 | 10.5 | 58 | 4.5 | W | 15 | 32 | 8 | 17 | 1019.2 | 1019.2 | 0.0 |
| 05/09:30am | 18.4 | 15.7 | 10.3 | 59 | 4.3 | WNW | 15 | 28 | 8 | 15 | 1019.4 | 1019.4 | 0.0 |
| 05/09:00am | 17.5 | 14.6 | 9.7 | 60 | 4.1 | WNW | 15 | 22 | 8 | 12 | 1019.3 | 1019.3 | 8.4 |
| 05/08:30am | 16.4 | 14.7 | 10.0 | 66 | 3.4 | NW | 9 | 15 | 5 | 8 | 1019.2 | 1019.2 | 8.4 |
| 05/08:00am | 14.2 | 12.3 | 10.6 | 79 | 1.9 | WNW | 11 | 19 | 6 | 10 | 1019.4 | 1019.4 | 8.4 |
| 05/07:30am | 12.8 | 13.6 | 12.5 | 98 | 0.2 | CALM | 0 | 0 | 0 | 0 | 1018.7 | 1018.7 | 8.4 |
| 05/07:00am | 11.2 | 11.5 | 10.9 | 98 | 0.2 | CALM | 0 | 0 | 0 | 0 | 1018.4 | 1018.4 | 8.4 |
| 05/06:44am | 10.2 | 10.2 | 9.7 | 97 | 0.3 | CALM | 0 | 0 | 0 | 0 | 1018.1 | 1018.1 | 8.4 |
| 05/06:30am | 10.4 | 10.4 | 9.8 | 96 | 0.3 | CALM | 0 | 0 | 0 | 0 | 1017.9 | 1017.9 | 8.4 |
| 05/06:11am | 10.5 | 10.5 | 9.9 | 96 | 0.3 | CALM | 0 | 0 | 0 | 0 | 1017.7 | 1017.7 | 8.4 |
| 05/06:00am | 10.9 | 11.0 | 10.3 | 96 | 0.3 | CALM | 0 | 0 | 0 | 0 | 1017.5 | 1017.5 | 8.4 |
| 05/05:30am | 11.2 | 11.4 | 10.6 | 96 | 0.3 | CALM | 0 | 0 | 0 | 0 | 1017.3 | 1017.3 | 8.4 |
| 05/05:00am | 11.9 | 12.3 | 11.3 | 96 | 0.3 | CALM | 0 | 0 | 0 | 0 | 1017.1 | 1017.1 | 8.4 |
| 05/04:30am | 12.7 | 13.1 | 11.1 | 90 | 0.8 | CALM | 0 | 0 | 0 | 0 | 1016.6 | 1016.6 | 8.4 |
| 05/04:00am | 12.4 | 12.8 | 11.3 | 93 | 0.6 | CALM | 0 | 0 | 0 | 0 | 1016.6 | 1016.6 | 8.4 |
| 05/03:30am | 12.6 | 13.0 | 11.3 | 92 | 0.7 | CALM | 0 | 0 | 0 | 0 | 1016.5 | 1016.5 | 8.4 |
| 05/03:00am | 13.9 | 14.7 | 12.6 | 92 | 0.7 | CALM | 0 | 0 | 0 | 0 | 1016.6 | 1016.6 | 8.4 |
| 05/02:30am | 14.6 | 15.6 | 13.1 | 91 | 0.8 | CALM | 0 | 0 | 0 | 0 | 1016.6 | 1016.6 | 8.4 |
| 05/02:00am | 15.2 | 16.3 | 13.6 | 90 | 0.9 | CALM | 0 | 7 | 0 | 4 | 1016.8 | 1016.8 | 8.4 |
| 05/01:30am | 16.2 | 17.5 | 14.2 | 88 | 1.1 | CALM | 0 | 9 | 0 | 5 | 1016.5 | 1016.5 | 8.4 |
| 05/01:00am | 16.8 | 17.1 | 15.0 | 89 | 1.0 | W | 7 | 11 | 4 | 6 | 1016.5 | 1016.5 | 8.4 |
| 05/12:30am | 17.0 | 17.4 | 15.3 | 90 | 1.0 | W | 7 | 11 | 4 | 6 | 1016.4 | 1016.4 | 8.4 |
| 05/12:00am | 17.1 | 18.3 | 15.8 | 92 | 0.8 | WSW | 4 | 7 | 2 | 4 | 1016.4 | 1016.4 | 8.2 |
| Date/Time EST |
Temp °C |
App Temp °C |
Dew Point °C |
Rel Hum % |
Delta-T °C |
Wind | Press QNH hPa |
Press MSL hPa |
Rain since 9am mm |
||||
|---|---|---|---|---|---|---|---|---|---|---|---|---|---|
| Dir | Spd km/h |
Gust km/h |
Spd kts |
Gust kts |
|||||||||
| 04/11:30pm | 17.3 | 19.2 | 15.8 | 91 | 0.9 | CALM | 0 | 0 | 0 | 0 | 1016.3 | 1016.3 | 8.2 |
| 04/11:00pm | 17.1 | 18.7 | 16.0 | 93 | 0.6 | W | 2 | 9 | 1 | 5 | 1016.6 | 1016.6 | 7.8 |
| 04/10:30pm | 17.0 | 17.3 | 15.9 | 93 | 0.6 | W | 9 | 11 | 5 | 6 | 1016.4 | 1016.4 | 7.8 |
| 04/10:00pm | 16.8 | 17.4 | 15.7 | 93 | 0.6 | W | 7 | 11 | 4 | 6 | 1016.5 | 1016.5 | 7.8 |
| 04/09:30pm | 16.8 | 17.6 | 15.8 | 94 | 0.6 | SW | 6 | 13 | 3 | 7 | 1016.1 | 1016.1 | 7.8 |
| 04/09:00pm | 17.1 | 19.1 | 16.0 | 93 | 0.6 | CALM | 0 | 0 | 0 | 0 | 1015.8 | 1015.8 | 7.8 |
| 04/08:30pm | 18.0 | 20.2 | 16.5 | 91 | 0.9 | CALM | 0 | 0 | 0 | 0 | 1015.1 | 1015.1 | 7.8 |
| 04/08:00pm | 18.4 | 20.4 | 16.0 | 86 | 1.4 | CALM | 0 | 2 | 0 | 1 | 1015.0 | 1015.0 | 7.8 |
| 04/07:30pm | 19.6 | 21.0 | 15.5 | 77 | 2.4 | WNW | 2 | 7 | 1 | 4 | 1014.9 | 1014.9 | 7.8 |
| 04/07:00pm | 20.6 | 20.6 | 15.2 | 71 | 3.2 | N | 9 | 17 | 5 | 9 | 1015.0 | 1015.0 | 7.8 |
| 04/06:30pm | 20.7 | 20.4 | 15.5 | 72 | 3.1 | N | 11 | 19 | 6 | 10 | 1014.7 | 1014.7 | 7.8 |
| 04/06:00pm | 20.1 | 20.8 | 15.7 | 76 | 2.6 | NNE | 6 | 11 | 3 | 6 | 1014.7 | 1014.7 | 7.8 |
| 04/05:30pm | 20.4 | 21.2 | 15.8 | 75 | 2.7 | NNW | 6 | 9 | 3 | 5 | 1014.5 | 1014.5 | 7.8 |
| 04/05:00pm | 20.8 | 20.9 | 15.6 | 72 | 3.1 | N | 9 | 15 | 5 | 8 | 1014.4 | 1014.4 | 7.8 |
| 04/04:30pm | 20.9 | 20.7 | 15.7 | 72 | 3.1 | N | 11 | 13 | 6 | 7 | 1014.2 | 1014.2 | 7.8 |
| 04/04:00pm | 20.9 | 21.0 | 15.4 | 71 | 3.3 | N | 9 | 13 | 5 | 7 | 1014.3 | 1014.3 | 7.8 |
| 04/03:30pm | 20.8 | 20.9 | 15.4 | 71 | 3.2 | NNW | 9 | 13 | 5 | 7 | 1014.6 | 1014.6 | 7.8 |
| 04/03:00pm | 21.1 | 21.6 | 16.5 | 75 | 2.8 | NNW | 9 | 15 | 5 | 8 | 1014.5 | 1014.5 | 7.8 |
| 04/02:30pm | 20.8 | 21.2 | 16.4 | 76 | 2.7 | N | 9 | 15 | 5 | 8 | 1014.4 | 1014.4 | 7.8 |
| 04/02:00pm | 20.1 | 20.3 | 16.7 | 81 | 2.1 | N | 11 | 17 | 6 | 9 | 1014.8 | 1014.8 | 7.8 |
| 04/01:30pm | 18.3 | 18.4 | 16.5 | 89 | 1.1 | NNE | 11 | 17 | 6 | 9 | 1015.0 | 1015.0 | 7.8 |
| 04/01:00pm | 17.6 | 17.2 | 16.3 | 92 | 0.8 | NNE | 13 | 17 | 7 | 9 | 1015.7 | 1015.7 | 7.8 |
| 04/12:30pm | 17.9 | 18.0 | 16.6 | 92 | 0.8 | NE | 11 | 17 | 6 | 9 | 1016.4 | 1016.4 | 7.2 |
| 04/12:08pm | 17.7 | 18.2 | 16.6 | 93 | 0.7 | NE | 9 | 13 | 5 | 7 | 1016.9 | 1016.9 | 7.2 |
| 04/12:00pm | 17.7 | 18.5 | 16.4 | 92 | 0.8 | NE | 7 | 11 | 4 | 6 | 1017.2 | 1017.2 | 6.8 |
| 04/11:46am | 17.9 | 19.1 | 16.8 | 93 | 0.7 | N | 6 | 11 | 3 | 6 | 1017.5 | 1017.5 | 5.8 |
| 04/11:43am | 17.8 | 18.7 | 16.5 | 92 | 0.8 | N | 7 | 11 | 4 | 6 | 1017.6 | 1017.6 | 5.4 |
| 04/11:30am | 17.9 | 18.5 | 16.8 | 93 | 0.7 | NNE | 9 | 11 | 5 | 6 | 1017.6 | 1017.6 | 5.0 |
| 04/11:00am | 17.8 | 18.9 | 16.5 | 92 | 0.8 | ENE | 6 | 9 | 3 | 5 | 1017.7 | 1017.7 | 3.6 |
| 04/10:51am | 17.9 | 20.1 | 16.4 | 91 | 0.9 | CALM | 0 | 0 | 0 | 0 | 1017.9 | 1017.9 | 2.4 |
| 04/10:48am | 17.8 | 19.8 | 16.1 | 90 | 1.0 | CALM | 0 | 0 | 0 | 0 | 1017.8 | 1017.8 | 2.2 |
| 04/10:37am | 17.8 | 19.8 | 16.0 | 89 | 1.1 | CALM | 0 | 0 | 0 | 0 | 1017.8 | 1017.8 | 2.0 |
| 04/10:30am | 17.9 | 19.9 | 16.1 | 89 | 1.1 | CALM | 0 | 0 | 0 | 0 | 1017.8 | 1017.8 | 1.2 |
| 04/10:00am | 17.5 | 19.4 | 15.7 | 89 | 1.1 | CALM | 0 | 0 | 0 | 0 | 1017.7 | 1017.7 | 0.8 |
| 04/09:30am | 17.5 | 18.6 | 15.7 | 89 | 1.1 | NNW | 4 | 9 | 2 | 5 | 1018.0 | 1018.0 | 0.0 |
| 04/09:00am | 17.8 | 17.8 | 15.2 | 85 | 1.5 | NW | 9 | 11 | 5 | 6 | 1018.3 | 1018.3 | 0.0 |
| 04/08:30am | 17.7 | 17.7 | 15.3 | 86 | 1.4 | NW | 9 | 15 | 5 | 8 | 1017.5 | 1017.5 | 0.0 |
| 04/08:00am | 17.6 | 18.0 | 15.4 | 87 | 1.3 | N | 7 | 9 | 4 | 5 | 1017.2 | 1017.2 | 0.0 |
| 04/07:30am | 17.0 | 17.0 | 15.3 | 90 | 1.0 | N | 9 | 11 | 5 | 6 | 1017.1 | 1017.1 | 0.0 |
| 04/07:00am | 16.3 | 18.1 | 15.5 | 95 | 0.5 | CALM | 0 | 0 | 0 | 0 | 1016.7 | 1016.7 | 0.0 |
| 04/06:30am | 15.8 | 17.4 | 15.0 | 95 | 0.5 | CALM | 0 | 0 | 0 | 0 | 1016.5 | 1016.5 | 0.0 |
| 04/06:00am | 15.6 | 17.2 | 14.8 | 95 | 0.5 | CALM | 0 | 0 | 0 | 0 | 1016.3 | 1016.3 | 0.0 |
| 04/05:30am | 15.6 | 17.2 | 15.0 | 96 | 0.3 | CALM | 0 | 0 | 0 | 0 | 1016.1 | 1016.1 | 0.0 |
| 04/05:00am | 15.6 | 17.2 | 15.0 | 96 | 0.3 | CALM | 0 | 0 | 0 | 0 | 1016.2 | 1016.2 | 0.0 |
| 04/04:30am | 15.5 | 17.1 | 15.0 | 97 | 0.3 | CALM | 0 | 0 | 0 | 0 | 1016.1 | 1016.1 | 0.0 |
| 04/04:00am | 15.3 | 16.9 | 14.8 | 97 | 0.3 | CALM | 0 | 0 | 0 | 0 | 1016.0 | 1016.0 | 0.0 |
| 04/03:30am | 14.9 | 16.3 | 14.3 | 96 | 0.3 | CALM | 0 | 0 | 0 | 0 | 1016.1 | 1016.1 | 0.0 |
| 04/03:00am | 15.1 | 16.5 | 14.5 | 96 | 0.3 | CALM | 0 | 0 | 0 | 0 | 1016.3 | 1016.3 | 0.0 |
| 04/02:30am | 15.0 | 16.3 | 14.2 | 95 | 0.5 | CALM | 0 | 0 | 0 | 0 | 1016.7 | 1016.7 | 0.0 |
| 04/02:00am | 15.4 | 17.0 | 14.8 | 96 | 0.3 | CALM | 0 | 0 | 0 | 0 | 1017.1 | 1017.1 | 0.0 |
| 04/01:30am | 15.2 | 16.6 | 14.4 | 95 | 0.5 | CALM | 0 | 0 | 0 | 0 | 1017.1 | 1017.1 | 0.0 |
| 04/01:00am | 15.1 | 16.5 | 14.3 | 95 | 0.5 | CALM | 0 | 0 | 0 | 0 | 1017.2 | 1017.2 | 0.0 |
| 04/12:30am | 15.7 | 17.3 | 14.9 | 95 | 0.5 | CALM | 0 | 0 | 0 | 0 | 1017.5 | 1017.5 | 0.0 |
| 04/12:01am | 15.9 | 17.6 | 15.1 | 95 | 0.5 | CALM | 0 | 0 | 0 | 0 | 1017.9 | 1017.9 | 0.0 |
| 04/12:00am | 15.8 | 17.4 | 15.0 | 95 | 0.5 | CALM | 0 | 0 | 0 | 0 | 1017.9 | 1017.9 | 0.0 |
| Date/Time EST |
Temp °C |
App Temp °C |
Dew Point °C |
Rel Hum % |
Delta-T °C |
Wind | Press QNH hPa |
Press MSL hPa |
Rain since 9am mm |
||||
|---|---|---|---|---|---|---|---|---|---|---|---|---|---|
| Dir | Spd km/h |
Gust km/h |
Spd kts |
Gust kts |
|||||||||
| 03/11:43pm | 15.9 | 17.6 | 15.1 | 95 | 0.5 | CALM | 0 | 0 | 0 | 0 | 1018.0 | 1018.0 | 0.0 |
| 03/11:30pm | 15.9 | 17.5 | 14.9 | 94 | 0.6 | CALM | 0 | 0 | 0 | 0 | 1018.2 | 1018.2 | 0.0 |
| 03/11:00pm | 16.1 | 17.7 | 15.0 | 93 | 0.6 | CALM | 0 | 0 | 0 | 0 | 1018.4 | 1018.4 | 0.0 |
| 03/10:30pm | 16.6 | 18.3 | 15.1 | 91 | 0.9 | CALM | 0 | 0 | 0 | 0 | 1018.7 | 1018.7 | 0.0 |
| 03/10:00pm | 17.2 | 19.1 | 15.7 | 91 | 0.9 | CALM | 0 | 0 | 0 | 0 | 1018.9 | 1018.9 | 0.0 |
| 03/09:30pm | 17.8 | 19.7 | 15.8 | 88 | 1.2 | CALM | 0 | 0 | 0 | 0 | 1018.8 | 1018.8 | 0.0 |
| 03/09:00pm | 19.0 | 19.9 | 16.0 | 83 | 1.8 | N | 6 | 9 | 3 | 5 | 1018.6 | 1018.6 | 0.0 |
| 03/08:30pm | 20.1 | 21.2 | 16.7 | 81 | 2.1 | NNW | 6 | 9 | 3 | 5 | 1018.6 | 1018.6 | 0.0 |
Latest Capital City Observations: Canberra | Sydney | Melbourne | Brisbane | Adelaide | Perth | Hobart | Darwin
Other formats
Comma delimited format used in spreadsheet applications
http://www.bom.gov.au/fwo/IDN60901/IDN60901.94765.axf
JavaScript Object Notation format (JSON) in row-major order
http://www.bom.gov.au/fwo/IDN60901/IDN60901.94765.json
Data quality
Most of these data are generated automatically and are frequently updated. Quality checks on data are not normally performed. It is possible for incorrect values to appear. Refer to information at About Latest Weather Observations and please check the disclaimer before using these data.
